Time;durP1;ratioP1;P1;durP2;ratioP2;P2;SDS_P1;SDS_P2;PMS_P1;PMS_P2;Temp;Humidity;BMP_temperature;BMP_pressure;BME280_temperature;BME280_humidity;BME280_pressure;Samples;Min_cycle;Max_cycle;Signal;HPM_P1;HPM_P2
2022/12/28 00:00:33;;;;;;;14.90;7.93;;;3.20;1.00;;;;;;9993748;29;20521;-79
2022/12/28 00:05:54;;;;;;;16.60;7.30;;;3.30;1.00;;;;;;10039717;29;20210;-78
2022/12/28 00:11:18;;;;;;;16.43;8.30;;;3.30;1.00;;;;;;10022323;29;20243;-78
2022/12/28 00:16:41;;;;;;;24.60;7.87;;;3.30;1.00;;;;;;10006781;29;20387;-79
2022/12/28 00:22:02;;;;;;;20.40;7.77;;;3.30;1.00;;;;;;10018695;29;20235;-78
2022/12/28 00:27:24;;;;;;;16.40;7.80;;;3.30;1.00;;;;;;10010007;29;20450;-78
2022/12/28 00:32:45;;;;;;;23.03;8.03;;;3.30;1.00;;;;;;10004893;29;20200;-79
2022/12/28 00:38:06;;;;;;;16.43;7.23;;;3.30;1.00;;;;;;10005117;29;20211;-78
2022/12/28 00:43:27;;;;;;;21.23;7.37;;;3.30;1.00;;;;;;10030124;29;20552;-78
2022/12/28 00:48:49;;;;;;;18.20;7.27;;;3.30;1.00;;;;;;10011722;29;20230;-78
2022/12/28 00:54:10;;;;;;;18.67;7.37;;;3.30;1.00;;;;;;10056380;29;20199;-78
2022/12/28 00:59:31;;;;;;;15.33;8.13;;;3.30;1.00;;;;;;10019367;29;20200;-79
2022/12/28 01:04:52;;;;;;;18.37;9.03;;;3.30;1.00;;;;;;10006767;29;20471;-79
2022/12/28 01:10:14;;;;;;;16.67;7.57;;;3.30;1.00;;;;;;9994304;29;20207;-78
2022/12/28 01:15:36;;;;;;;27.60;8.03;;;3.30;1.00;;;;;;10016614;29;20283;-78
2022/12/28 01:20:57;;;;;;;11.87;6.70;;;3.20;1.00;;;;;;10010812;29;20403;-78
2022/12/28 01:26:18;;;;;;;16.30;6.80;;;3.30;1.00;;;;;;10019557;29;20212;-79
2022/12/28 01:31:39;;;;;;;16.33;7.23;;;3.30;1.00;;;;;;10016412;29;20204;-78
2022/12/28 01:37:01;;;;;;;15.90;7.07;;;3.30;1.00;;;;;;10004486;29;20271;-78
2022/12/28 01:42:22;;;;;;;13.70;6.13;;;3.20;1.00;;;;;;10033042;29;20255;-77
2022/12/28 01:47:45;;;;;;;14.70;6.07;;;3.20;1.00;;;;;;10056169;29;20280;-78
2022/12/28 01:53:07;;;;;;;17.43;6.23;;;3.10;1.00;;;;;;10051871;29;20459;-78
2022/12/28 01:58:31;;;;;;;16.47;6.40;;;3.10;1.00;;;;;;10013987;29;20562;-78
2022/12/28 02:03:52;;;;;;;21.53;6.30;;;3.00;1.00;;;;;;10002770;29;20236;-76
2022/12/28 02:09:22;;;;;;;10.97;4.40;;;3.10;1.00;;;;;;10019197;29;20230;-76
2022/12/28 02:14:44;;;;;;;10.87;4.53;;;3.00;1.00;;;;;;10002249;29;20532;-76
2022/12/28 02:20:07;;;;;;;12.83;5.77;;;3.00;1.00;;;;;;10005166;29;20203;-79
2022/12/28 02:25:51;;;;;;;12.47;5.10;;;3.00;1.00;;;;;;10016164;29;20236;-76
2022/12/28 02:31:20;;;;;;;14.43;4.93;;;2.90;1.00;;;;;;10003393;29;20478;-77
2022/12/28 02:36:48;;;;;;;15.37;6.40;;;2.90;1.00;;;;;;10004540;29;20203;-79
2022/12/28 02:42:11;;;;;;;10.23;4.37;;;2.90;1.00;;;;;;10017338;29;20428;-78
2022/12/28 02:53:58;;;;;;;17.23;5.17;;;2.80;1.00;;;;;;10019438;29;20207;-79
2022/12/28 02:59:47;;;;;;;20.03;4.97;;;2.80;1.00;;;;;;10057190;29;20214;-79
2022/12/28 03:05:17;;;;;;;15.47;5.00;;;2.80;1.00;;;;;;10047339;29;20409;-77
2022/12/28 03:11:00;;;;;;;23.93;7.73;;;2.70;1.00;;;;;;10011405;29;20216;-77
2022/12/28 03:16:26;;;;;;;16.27;6.40;;;2.60;1.00;;;;;;10008088;29;20192;-76
2022/12/28 03:33:17;;;;;;;16.93;4.90;;;2.70;1.00;;;;;;10007379;29;20200;-77
2022/12/28 03:38:49;;;;;;;12.87;4.73;;;2.70;1.00;;;;;;10010056;29;20219;-77
2022/12/28 03:44:25;;;;;;;17.07;5.33;;;2.70;1.00;;;;;;10031745;29;20247;-77
2022/12/28 03:49:46;;;;;;;12.13;4.30;;;2.70;1.00;;;;;;10031817;29;20239;-77
2022/12/28 03:55:08;;;;;;;13.03;5.23;;;2.70;1.00;;;;;;10007373;29;20216;-77
2022/12/28 04:00:29;;;;;;;8.13;3.83;;;2.70;1.00;;;;;;10021648;29;20259;-78
2022/12/28 04:05:50;;;;;;;10.97;4.23;;;2.70;1.00;;;;;;10020341;29;20243;-78
2022/12/28 04:11:12;;;;;;;12.17;5.77;;;2.70;1.00;;;;;;10025707;29;20208;-77
2022/12/28 04:16:36;;;;;;;15.83;5.70;;;2.70;1.00;;;;;;10006176;29;20252;-76
2022/12/28 04:21:58;;;;;;;13.43;5.97;;;2.70;1.00;;;;;;10027840;29;20237;-76
2022/12/28 04:27:22;;;;;;;17.73;6.63;;;2.70;1.00;;;;;;10008094;29;20203;-77
2022/12/28 04:32:47;;;;;;;15.00;6.27;;;2.60;1.00;;;;;;10005302;29;20209;-76
2022/12/28 04:38:08;;;;;;;12.07;8.17;;;2.60;20.30;;;;;;10021247;29;20505;-76
2022/12/28 04:43:30;;;;;;;19.23;8.20;;;2.50;11.90;;;;;;10043395;29;20322;-76
2022/12/28 04:48:51;;;;;;;23.50;8.57;;;2.60;1.00;;;;;;10022815;29;20478;-76
2022/12/28 04:54:13;;;;;;;12.63;7.40;;;2.40;44.20;;;;;;10055659;29;20219;-76
2022/12/28 04:59:35;;;;;;;19.70;9.43;;;2.40;89.40;;;;;;10043347;29;20195;-78
2022/12/28 05:04:55;;;;;;;21.97;9.97;;;2.50;66.90;;;;;;10042975;29;20234;-78
2022/12/28 05:10:16;;;;;;;26.07;12.87;;;2.50;36.60;;;;;;10027698;29;20207;-78
2022/12/28 05:15:38;;;;;;;29.43;13.57;;;2.50;25.60;;;;;;10041628;29;20223;-78
2022/12/28 05:21:07;;;;;;;18.77;14.57;;;2.40;38.90;;;;;;10040282;29;20385;-77
2022/12/28 05:26:29;;;;;;;21.10;12.40;;;2.30;38.50;;;;;;10055529;29;20203;-77
2022/12/28 05:31:49;;;;;;;22.40;12.03;;;2.30;54.20;;;;;;10042177;29;20199;-80
2022/12/28 05:37:10;;;;;;;23.53;13.37;;;2.40;20.60;;;;;;10025832;29;20219;-78
2022/12/28 05:42:34;;;;;;;21.53;13.50;;;2.40;28.00;;;;;;10040123;29;20260;-78
2022/12/28 05:47:56;;;;;;;21.33;12.70;;;2.20;59.40;;;;;;10041689;29;20209;-78
2022/12/28 05:53:17;;;;;;;19.70;13.80;;;2.30;95.90;;;;;;10054148;29;20223;-77
2022/12/28 05:58:38;;;;;;;27.20;16.90;;;2.20;99.90;;;;;;10040526;29;20196;-78
2022/12/28 06:04:02;;;;;;;25.07;14.80;;;2.30;99.90;;;;;;10040101;29;20235;-78
2022/12/28 06:09:23;;;;;;;19.97;11.90;;;2.30;99.90;;;;;;10006462;29;20250;-78
2022/12/28 06:14:44;;;;;;;20.83;13.00;;;2.30;99.80;;;;;;10031474;29;20203;-78
2022/12/28 06:20:06;;;;;;;20.60;11.77;;;2.30;75.70;;;;;;10058577;29;20249;-78
2022/12/28 06:25:27;;;;;;;19.37;12.30;;;2.30;99.90;;;;;;10043166;29;20235;-79
2022/12/28 06:30:49;;;;;;;20.30;13.53;;;2.30;99.90;;;;;;10048105;29;20202;-78
2022/12/28 06:36:23;;;;;;;21.07;14.27;;;2.30;99.90;;;;;;10033900;29;20231;-78
2022/12/28 06:41:44;;;;;;;27.37;15.33;;;2.30;99.90;;;;;;10061956;29;20341;-79
2022/12/28 06:47:05;;;;;;;24.17;13.73;;;2.30;99.90;;;;;;10046886;29;20238;-79
2022/12/28 06:52:26;;;;;;;21.73;12.57;;;2.40;99.30;;;;;;10009375;29;20502;-78
2022/12/28 06:57:47;;;;;;;24.03;13.03;;;2.30;99.90;;;;;;10042582;29;20527;-80
2022/12/28 07:03:09;;;;;;;28.60;17.57;;;2.30;99.90;;;;;;10048579;29;20309;-78
2022/12/28 07:08:31;;;;;;;22.90;14.17;;;2.30;95.50;;;;;;10023532;29;20214;-78
2022/12/28 07:13:52;;;;;;;18.67;13.47;;;2.40;65.10;;;;;;10008915;29;20486;-79
2022/12/28 07:19:13;;;;;;;22.97;14.70;;;2.30;56.80;;;;;;10026085;29;20423;-80
2022/12/28 07:24:34;;;;;;;23.70;14.03;;;2.40;43.30;;;;;;10049233;29;20237;-79
2022/12/28 07:29:55;;;;;;;23.47;13.40;;;2.30;70.20;;;;;;10045727;29;20195;-76
2022/12/28 07:35:16;;;;;;;29.20;18.70;;;2.30;55.40;;;;;;10029147;29;20219;-76
2022/12/28 07:40:37;;;;;;;27.37;15.40;;;2.40;15.30;;;;;;10009528;29;20236;-78
2022/12/28 07:46:03;;;;;;;25.00;15.60;;;2.40;44.40;;;;;;10031518;29;20257;-78
2022/12/28 07:51:29;;;;;;;23.27;13.60;;;2.40;8.70;;;;;;10041246;29;20211;-76
2022/12/28 07:56:50;;;;;;;26.80;15.23;;;2.30;31.40;;;;;;10046972;29;20247;-76
2022/12/28 08:02:11;;;;;;;27.97;15.63;;;2.40;59.70;;;;;;10043493;29;20215;-76
2022/12/28 08:07:32;;;;;;;25.33;14.80;;;2.40;24.10;;;;;;9994096;29;20245;-76
2022/12/28 08:12:54;;;;;;;20.73;13.83;;;2.40;42.20;;;;;;9993209;29;20230;-78
2022/12/28 08:18:15;;;;;;;23.97;14.13;;;2.40;37.30;;;;;;10023906;29;20220;-79
2022/12/28 08:23:36;;;;;;;29.30;16.77;;;2.40;42.30;;;;;;10025680;29;20231;-78
2022/12/28 08:29:01;;;;;;;31.57;16.93;;;2.40;55.50;;;;;;10043825;29;20239;-81
2022/12/28 08:34:25;;;;;;;29.00;14.50;;;2.50;28.10;;;;;;10010384;29;20247;-82
2022/12/28 08:39:46;;;;;;;30.37;14.90;;;2.50;40.50;;;;;;10039611;29;20386;-79
2022/12/28 08:45:08;;;;;;;31.27;15.03;;;2.50;73.40;;;;;;10038749;29;20235;-78
2022/12/28 08:50:30;;;;;;;60.47;21.73;;;2.50;38.30;;;;;;10037168;29;20211;-77
2022/12/28 08:55:51;;;;;;;29.93;16.60;;;2.60;55.00;;;;;;10039078;29;20214;-77
2022/12/28 09:01:18;;;;;;;30.87;15.20;;;2.70;11.70;;;;;;10043142;29;20450;-76
2022/12/28 09:06:39;;;;;;;38.80;17.73;;;2.60;27.90;;;;;;10077974;29;20238;-76
2022/12/28 09:12:01;;;;;;;35.00;13.73;;;2.50;55.70;;;;;;10074643;29;20205;-78
2022/12/28 09:17:22;;;;;;;30.63;16.43;;;2.60;50.20;;;;;;10082436;29;20501;-78
2022/12/28 09:22:43;;;;;;;20.40;12.90;;;2.60;32.00;;;;;;10062845;29;20310;-78
2022/12/28 09:28:04;;;;;;;20.47;12.17;;;2.60;29.70;;;;;;10037718;29;20197;-84
2022/12/28 09:39:19;;;;;;;17.90;11.47;;;2.70;12.00;;;;;;10036816;29;20391;-79
2022/12/28 09:44:58;;;;;;;20.67;12.53;;;2.80;1.00;;;;;;10045856;29;20425;-75
2022/12/28 09:50:33;;;;;;;17.53;11.47;;;2.80;1.00;;;;;;10033139;29;20210;-77
2022/12/28 09:56:37;;;;;;;21.87;11.67;;;2.80;1.00;;;;;;10023206;29;20389;-82
2022/12/28 10:02:02;;;;;;;21.00;10.93;;;2.70;1.00;;;;;;9999468;29;20193;-82
2022/12/28 10:07:24;;;;;;;23.10;11.63;;;2.90;1.00;;;;;;10026624;29;20214;-81
2022/12/28 10:12:46;;;;;;;21.00;11.23;;;2.80;1.00;;;;;;10045477;29;20493;-82
2022/12/28 10:18:07;;;;;;;21.70;11.33;;;2.90;1.00;;;;;;10059710;29;20222;-78
2022/12/28 10:23:31;;;;;;;23.60;12.90;;;2.90;1.00;;;;;;10043916;29;20411;-84
2022/12/28 10:28:57;;;;;;;28.17;12.43;;;3.00;1.00;;;;;;10048830;29;20203;-79
2022/12/28 10:34:23;;;;;;;22.17;13.00;;;3.00;1.00;;;;;;10048666;29;20223;-77
2022/12/28 10:39:54;;;;;;;26.07;12.20;;;3.10;1.00;;;;;;10041526;29;20254;-75
2022/12/28 10:45:21;;;;;;;17.17;10.17;;;3.10;1.00;;;;;;10057617;29;20253;-78
2022/12/28 10:50:57;;;;;;;29.07;12.03;;;3.10;1.00;;;;;;10083184;29;20420;-80
2022/12/28 10:56:23;;;;;;;16.33;9.23;;;3.20;1.00;;;;;;10066282;29;20223;-80
2022/12/28 11:01:45;;;;;;;20.60;8.50;;;3.20;1.00;;;;;;10053851;29;20214;-81
2022/12/28 11:07:26;;;;;;;15.23;7.53;;;3.20;1.00;;;;;;10079637;29;20235;-78
2022/12/28 11:12:48;;;;;;;17.13;8.80;;;3.30;1.00;;;;;;10073712;29;20500;-79
2022/12/28 11:18:17;;;;;;;27.63;12.30;;;3.30;1.00;;;;;;10040921;29;20218;-83
2022/12/28 11:23:39;;;;;;;30.17;13.73;;;3.40;1.00;;;;;;10040234;29;20236;-75
2022/12/28 11:29:00;;;;;;;33.70;13.83;;;3.50;1.00;;;;;;10011195;29;20214;-77
2022/12/28 11:34:25;;;;;;;31.30;12.93;;;3.50;1.00;;;;;;10028277;29;20683;-79
2022/12/28 11:39:49;;;;;;;25.60;11.27;;;3.50;1.00;;;;;;10016342;29;20240;-77
2022/12/28 11:45:16;;;;;;;28.30;12.07;;;3.40;1.00;;;;;;10024823;29;20287;-74
2022/12/28 11:50:40;;;;;;;30.87;12.23;;;3.40;1.00;;;;;;10040022;29;20195;-83
2022/12/28 11:56:10;;;;;;;29.60;11.67;;;3.50;1.00;;;;;;10039563;29;20529;-77
2022/12/28 12:01:33;;;;;;;24.10;10.60;;;3.70;1.00;;;;;;10039553;29;20295;-75
2022/12/28 12:06:55;;;;;;;33.97;12.00;;;3.70;1.00;;;;;;10038061;29;20314;-77
2022/12/28 12:12:18;;;;;;;23.57;11.50;;;3.70;1.00;;;;;;10026051;29;20207;-80
2022/12/28 12:17:57;;;;;;;48.07;20.50;;;3.80;1.00;;;;;;10060071;29;20417;-79
2022/12/28 12:23:39;;;;;;;37.23;15.03;;;3.80;1.00;;;;;;10052656;29;20235;-79
2022/12/28 12:29:13;;;;;;;37.70;16.60;;;3.90;1.00;;;;;;10050908;29;20211;-79
2022/12/28 12:34:37;;;;;;;28.73;13.97;;;3.90;1.00;;;;;;10023951;29;20406;-79
2022/12/28 12:40:07;;;;;;;30.73;11.53;;;3.80;1.00;;;;;;10035351;29;20293;-78
2022/12/28 12:45:56;;;;;;;22.60;10.10;;;3.80;1.00;;;;;;10000985;29;20232;-77
2022/12/28 12:51:58;;;;;;;19.17;9.53;;;3.80;1.00;;;;;;10014336;29;20447;-78
2022/12/28 12:57:53;;;;;;;24.90;11.80;;;3.90;1.00;;;;;;10035886;29;20393;-81
2022/12/28 13:03:30;;;;;;;30.70;13.97;;;3.90;1.00;;;;;;10050869;29;20226;-78
2022/12/28 13:08:58;;;;;;;22.70;11.37;;;3.90;1.00;;;;;;10032863;29;20213;-80
2022/12/28 13:14:24;;;;;;;17.50;9.37;;;3.90;1.00;;;;;;9999069;29;20242;-78
2022/12/28 13:19:45;;;;;;;22.13;12.87;;;3.90;1.00;;;;;;10012210;29;20305;-76
2022/12/28 13:25:32;;;;;;;20.77;10.77;;;3.90;1.00;;;;;;10015201;29;20544;-76
2022/12/28 13:31:20;;;;;;;21.30;11.67;;;3.80;1.00;;;;;;10036837;29;20208;-75
2022/12/28 13:36:55;;;;;;;20.97;11.17;;;3.80;1.00;;;;;;10022913;29;20393;-81
2022/12/28 13:42:23;;;;;;;83.53;46.30;;;3.80;1.00;;;;;;10001933;29;20237;-76
2022/12/28 13:47:50;;;;;;;22.90;12.60;;;3.90;1.00;;;;;;10000893;29;20450;-81
2022/12/28 13:53:16;;;;;;;25.60;11.83;;;3.90;1.00;;;;;;10000064;29;20207;-78
2022/12/28 13:58:41;;;;;;;28.13;12.57;;;3.90;1.00;;;;;;10022463;29;20317;-78
2022/12/28 14:04:06;;;;;;;23.87;12.00;;;3.80;1.00;;;;;;10037834;29;20254;-77
2022/12/28 14:09:48;;;;;;;35.90;13.37;;;3.80;1.00;;;;;;10038923;29;20207;-78
2022/12/28 14:15:12;;;;;;;30.97;10.90;;;3.90;1.00;;;;;;10072776;29;20208;-77
2022/12/28 14:20:48;;;;;;;45.90;17.80;;;3.90;1.00;;;;;;10087897;29;20213;-80
2022/12/28 14:26:19;;;;;;;37.97;17.17;;;3.80;4.80;;;;;;10037331;29;20234;-80
2022/12/28 14:31:41;;;;;;;43.70;21.17;;;3.80;28.60;;;;;;10034631;29;20244;-80
2022/12/28 14:37:02;;;;;;;41.07;18.00;;;3.70;78.70;;;;;;10034263;29;20525;-77
2022/12/28 14:42:25;;;;;;;29.70;14.30;;;3.70;85.30;;;;;;10007783;29;20254;-78
2022/12/28 14:47:46;;;;;;;22.10;12.90;;;3.80;99.90;;;;;;9990993;29;20386;-76
2022/12/28 14:53:18;;;;;;;26.83;13.73;;;3.80;99.90;;;;;;10042431;29;20320;-77
2022/12/28 14:58:48;;;;;;;29.90;16.03;;;3.80;99.90;;;;;;10055354;29;20202;-77
2022/12/28 15:04:36;;;;;;;40.40;17.77;;;3.80;99.90;;;;;;10008619;29;20259;-76
2022/12/28 15:09:57;;;;;;;35.67;16.67;;;3.80;99.90;;;;;;10039697;29;20564;-78
2022/12/28 15:15:18;;;;;;;68.43;36.20;;;3.80;99.90;;;;;;10026693;29;20211;-78
2022/12/28 15:20:39;;;;;;;35.47;17.70;;;3.80;99.90;;;;;;10042744;29;20199;-76
2022/12/28 15:26:11;;;;;;;24.13;12.03;;;3.90;99.90;;;;;;10039619;29;20462;-77
2022/12/28 15:31:32;;;;;;;20.27;9.97;;;4.00;99.90;;;;;;10026987;29;20253;-77
2022/12/28 15:36:53;;;;;;;30.23;17.20;;;4.00;99.90;;;;;;10039872;29;20511;-77
2022/12/28 15:42:14;;;;;;;68.63;23.47;;;4.00;99.90;;;;;;10041799;29;20243;-78
2022/12/28 15:47:36;;;;;;;48.47;21.47;;;3.90;99.90;;;;;;10017186;29;20317;-77
2022/12/28 15:52:57;;;;;;;40.63;15.53;;;3.90;99.90;;;;;;10002275;29;20192;-78
2022/12/28 15:58:18;;;;;;;148.40;44.23;;;4.00;99.90;;;;;;10026925;29;20214;-76
2022/12/28 16:03:38;;;;;;;81.93;29.60;;;4.00;99.90;;;;;;10037147;29;20223;-80
2022/12/28 16:09:01;;;;;;;45.73;19.40;;;4.00;99.90;;;;;;10040078;29;20494;-76
2022/12/28 16:14:22;;;;;;;35.10;17.87;;;4.10;99.90;;;;;;10039231;29;20513;-77
2022/12/28 16:19:43;;;;;;;40.30;17.47;;;4.20;99.90;;;;;;10085864;29;20536;-79
2022/12/28 16:25:05;;;;;;;28.60;14.47;;;4.10;99.90;;;;;;10063019;29;20267;-76
2022/12/28 16:30:26;;;;;;;21.03;10.13;;;4.10;99.90;;;;;;10040736;29;20235;-78
2022/12/28 16:35:48;;;;;;;17.27;8.47;;;4.10;99.90;;;;;;10039584;29;20463;-78
2022/12/28 16:41:11;;;;;;;15.17;8.83;;;4.10;99.90;;;;;;10040291;29;20241;-79
2022/12/28 16:46:32;;;;;;;16.13;8.47;;;4.20;99.90;;;;;;10031451;29;20233;-78
2022/12/28 16:51:53;;;;;;;19.70;10.40;;;4.10;99.90;;;;;;10037630;29;20196;-79
2022/12/28 16:57:14;;;;;;;10.87;6.50;;;4.20;99.90;;;;;;10041928;29;20219;-78
2022/12/28 17:02:35;;;;;;;10.37;6.70;;;4.30;99.90;;;;;;10022979;29;20401;-77
2022/12/28 17:07:56;;;;;;;42.47;18.03;;;4.30;99.90;;;;;;10025459;29;20238;-78
2022/12/28 17:13:17;;;;;;;42.33;14.50;;;4.20;99.90;;;;;;10004412;29;20204;-76
2022/12/28 17:18:38;;;;;;;49.57;19.83;;;4.30;99.90;;;;;;10004708;29;20386;-79
2022/12/28 17:24:00;;;;;;;70.23;23.20;;;4.30;99.90;;;;;;10019581;29;20230;-79
2022/12/28 17:29:21;;;;;;;43.87;17.80;;;4.30;99.90;;;;;;10056019;29;20250;-79
2022/12/28 17:34:42;;;;;;;62.70;21.37;;;4.40;99.90;;;;;;10041450;29;20446;-80
2022/12/28 17:40:03;;;;;;;36.53;16.20;;;4.40;99.90;;;;;;10038163;29;20545;-79
2022/12/28 17:45:24;;;;;;;16.30;9.80;;;4.50;99.90;;;;;;10017706;29;20241;-78
2022/12/28 17:50:45;;;;;;;13.87;7.50;;;4.60;99.90;;;;;;10044948;29;20209;-78
2022/12/28 17:56:10;;;;;;;13.80;8.03;;;4.60;99.90;;;;;;10038312;29;20201;-80
2022/12/28 18:01:31;;;;;;;16.43;8.57;;;4.60;99.90;;;;;;10055372;29;20227;-78
2022/12/28 18:06:52;;;;;;;16.20;7.90;;;4.60;99.90;;;;;;10050318;29;20231;-79
2022/12/28 18:12:15;;;;;;;11.97;6.50;;;4.70;99.90;;;;;;10039686;29;20194;-79
2022/12/28 18:17:36;;;;;;;12.87;7.30;;;4.70;99.90;;;;;;10093454;29;20507;-80
2022/12/28 18:22:58;;;;;;;17.97;8.70;;;4.70;99.90;;;;;;10077320;29;20275;-79
2022/12/28 18:28:19;;;;;;;12.30;6.90;;;4.70;99.90;;;;;;10049308;29;20284;-76
2022/12/28 18:33:40;;;;;;;10.10;5.50;;;4.80;99.90;;;;;;10040661;29;20208;-78
2022/12/28 18:39:02;;;;;;;12.97;8.20;;;4.80;99.90;;;;;;10046368;29;20207;-78
2022/12/28 18:44:23;;;;;;;14.57;6.90;;;4.80;99.90;;;;;;10058496;29;20263;-78
2022/12/28 18:49:47;;;;;;;9.97;5.63;;;4.90;99.90;;;;;;10047814;29;20200;-76
2022/12/28 18:55:08;;;;;;;10.70;5.93;;;4.90;99.90;;;;;;10046964;29;20205;-78
2022/12/28 19:00:29;;;;;;;19.10;10.80;;;4.90;99.90;;;;;;10032742;29;20233;-79
2022/12/28 19:05:59;;;;;;;13.13;7.00;;;5.00;99.90;;;;;;10008855;29;20243;-78
2022/12/28 19:11:22;;;;;;;7.80;5.10;;;5.00;99.90;;;;;;10007708;29;20193;-76
2022/12/28 19:16:43;;;;;;;8.33;5.63;;;5.00;99.90;;;;;;10047664;29;20207;-80
2022/12/28 19:22:04;;;;;;;13.33;8.53;;;5.10;99.90;;;;;;10099216;29;20398;-78
2022/12/28 19:27:26;;;;;;;10.00;5.80;;;5.00;99.90;;;;;;10048956;29;20232;-77
2022/12/28 19:32:47;;;;;;;12.53;6.67;;;5.10;99.90;;;;;;10041217;29;20207;-78
2022/12/28 19:38:08;;;;;;;8.07;5.03;;;5.10;99.90;;;;;;10044419;29;20397;-80
2022/12/28 19:43:29;;;;;;;9.23;6.93;;;5.20;99.90;;;;;;10043609;29;20311;-76
2022/12/28 19:48:53;;;;;;;8.23;4.90;;;5.20;99.90;;;;;;10044624;29;20212;-79
2022/12/28 19:54:14;;;;;;;17.00;10.07;;;5.20;99.90;;;;;;10045144;29;20272;-79
2022/12/28 19:59:35;;;;;;;12.90;6.53;;;5.20;99.90;;;;;;10036924;29;20212;-80
2022/12/28 20:04:56;;;;;;;9.37;5.70;;;5.20;99.90;;;;;;10006759;29;20221;-77
2022/12/28 20:10:17;;;;;;;10.03;5.90;;;5.30;99.90;;;;;;10006772;29;20466;-76
2022/12/28 20:15:40;;;;;;;9.70;5.90;;;5.20;99.90;;;;;;10041315;29;20262;-77
2022/12/28 20:21:04;;;;;;;8.97;5.07;;;5.30;99.90;;;;;;10058471;29;20204;-78
2022/12/28 20:26:41;;;;;;;11.53;6.43;;;5.30;99.90;;;;;;10036507;29;20481;-78
2022/12/28 20:32:02;;;;;;;10.33;7.00;;;5.40;99.90;;;;;;10015646;29;20204;-79
2022/12/28 20:37:23;;;;;;;12.50;8.40;;;5.30;99.90;;;;;;10028430;29;20288;-80
2022/12/28 20:48:24;;;;;;;12.47;7.63;;;5.40;99.90;;;;;;10016748;29;20434;-80
2022/12/28 20:53:45;;;;;;;9.00;6.23;;;5.40;99.90;;;;;;10053211;29;20208;-80
2022/12/28 20:59:07;;;;;;;8.80;7.10;;;5.40;99.90;;;;;;10042069;29;20196;-79
2022/12/28 21:04:29;;;;;;;12.70;7.07;;;5.50;99.90;;;;;;10035881;29;20236;-77
2022/12/28 21:09:49;;;;;;;13.00;6.27;;;5.50;99.90;;;;;;10005205;29;20233;-78
2022/12/28 21:15:11;;;;;;;10.07;5.53;;;5.50;99.90;;;;;;10018945;29;20500;-77
2022/12/28 21:20:32;;;;;;;9.27;6.83;;;5.50;99.90;;;;;;10039225;29;20204;-78
2022/12/28 21:26:01;;;;;;;9.10;6.50;;;5.60;99.90;;;;;;10056202;29;20606;-79
2022/12/28 21:31:22;;;;;;;11.27;7.37;;;5.60;99.90;;;;;;10041765;29;20197;-79
2022/12/28 21:36:43;;;;;;;14.27;7.37;;;5.60;99.90;;;;;;10019167;29;20215;-79
2022/12/28 21:42:04;;;;;;;12.53;7.57;;;5.60;99.90;;;;;;10018146;29;20242;-76
2022/12/28 21:47:25;;;;;;;12.67;8.07;;;5.60;99.90;;;;;;10003612;29;20229;-76
2022/12/28 21:52:46;;;;;;;9.83;7.13;;;5.50;99.90;;;;;;10040517;29;20510;-80
2022/12/28 21:58:08;;;;;;;22.27;11.17;;;5.60;99.90;;;;;;10041072;29;20204;-80
2022/12/28 22:14:48;;;;;;;18.93;9.37;;;5.50;99.90;;;;;;10017138;29;20205;-78
2022/12/28 22:20:12;;;;;;;28.97;12.43;;;5.60;99.90;;;;;;10048051;29;20256;-77
2022/12/28 22:25:34;;;;;;;32.23;14.03;;;5.60;99.90;;;;;;10056934;29;20283;-77
2022/12/28 22:30:56;;;;;;;36.23;14.93;;;5.70;99.90;;;;;;10039486;29;20451;-77
2022/12/28 22:36:18;;;;;;;30.37;12.87;;;5.70;99.90;;;;;;10036394;29;20212;-79
2022/12/28 22:41:39;;;;;;;31.30;13.17;;;5.60;99.90;;;;;;10040388;29;20229;-79
2022/12/28 22:47:00;;;;;;;28.33;11.77;;;5.70;99.90;;;;;;10038401;29;20226;-78
2022/12/28 22:52:21;;;;;;;25.30;9.73;;;5.60;99.90;;;;;;10040466;29;20338;-79
2022/12/28 22:57:42;;;;;;;24.43;9.23;;;5.60;99.90;;;;;;10040039;29;20208;-79
2022/12/28 23:03:05;;;;;;;19.47;10.43;;;5.70;99.90;;;;;;10029106;29;20216;-80
2022/12/28 23:08:26;;;;;;;21.30;9.90;;;5.70;99.90;;;;;;10002396;29;20232;-79
2022/12/28 23:13:47;;;;;;;27.40;10.53;;;5.70;99.90;;;;;;10008263;29;20282;-80
2022/12/28 23:30:29;;;;;;;10.33;6.90;;;5.70;99.90;;;;;;10046035;29;20508;-80
2022/12/28 23:35:51;;;;;;;11.43;6.30;;;5.70;99.90;;;;;;10020967;29;20434;-80
2022/12/28 23:46:52;;;;;;;14.90;9.10;;;5.70;99.90;;;;;;10007429;29;20225;-79
2022/12/28 23:52:18;;;;;;;14.97;8.03;;;5.70;99.90;;;;;;10007355;29;20217;-80
2022/12/28 23:57:42;;;;;;;8.90;5.60;;;5.70;99.90;;;;;;10015791;29;20212;-78
